sensor_id;sensor_type;location;lat;lon;timestamp;P1;durP1;ratioP1;P2;durP2;ratioP2
17361;SDS011;8798;51.938;4.348;2023-02-16T00:01:22;48.43;;;21.63;;
17361;SDS011;8798;51.938;4.348;2023-02-16T00:03:52;42.27;;;20.60;;
17361;SDS011;8798;51.938;4.348;2023-02-16T00:06:22;45.00;;;20.50;;
17361;SDS011;8798;51.938;4.348;2023-02-16T00:08:51;45.33;;;21.20;;
17361;SDS011;8798;51.938;4.348;2023-02-16T00:11:20;46.27;;;20.60;;
17361;SDS011;8798;51.938;4.348;2023-02-16T00:14:11;42.20;;;21.17;;
17361;SDS011;8798;51.938;4.348;2023-02-16T00:16:40;42.97;;;20.53;;
17361;SDS011;8798;51.938;4.348;2023-02-16T00:19:14;42.80;;;21.07;;
17361;SDS011;8798;51.938;4.348;2023-02-16T00:21:45;45.77;;;20.43;;
17361;SDS011;8798;51.938;4.348;2023-02-16T00:24:13;43.40;;;20.70;;
17361;SDS011;8798;51.938;4.348;2023-02-16T00:26:42;47.50;;;21.43;;
17361;SDS011;8798;51.938;4.348;2023-02-16T00:29:13;44.90;;;20.60;;
17361;SDS011;8798;51.938;4.348;2023-02-16T00:31:46;43.10;;;20.07;;
17361;SDS011;8798;51.938;4.348;2023-02-16T00:34:21;43.23;;;21.10;;
17361;SDS011;8798;51.938;4.348;2023-02-16T00:36:53;50.20;;;22.40;;
17361;SDS011;8798;51.938;4.348;2023-02-16T00:39:23;43.30;;;20.23;;
17361;SDS011;8798;51.938;4.348;2023-02-16T00:41:51;44.57;;;20.57;;
17361;SDS011;8798;51.938;4.348;2023-02-16T00:44:22;44.40;;;20.37;;
17361;SDS011;8798;51.938;4.348;2023-02-16T00:46:58;44.33;;;20.73;;
17361;SDS011;8798;51.938;4.348;2023-02-16T00:49:28;43.43;;;20.30;;
17361;SDS011;8798;51.938;4.348;2023-02-16T00:51:58;43.27;;;19.53;;
17361;SDS011;8798;51.938;4.348;2023-02-16T00:54:25;41.57;;;20.67;;
17361;SDS011;8798;51.938;4.348;2023-02-16T00:56:56;40.90;;;19.63;;
17361;SDS011;8798;51.938;4.348;2023-02-16T00:59:24;42.33;;;19.53;;
17361;SDS011;8798;51.938;4.348;2023-02-16T01:01:51;39.87;;;18.90;;
17361;SDS011;8798;51.938;4.348;2023-02-16T01:04:20;44.97;;;20.37;;
17361;SDS011;8798;51.938;4.348;2023-02-16T01:06:49;42.20;;;20.13;;
17361;SDS011;8798;51.938;4.348;2023-02-16T01:09:36;41.93;;;20.47;;
17361;SDS011;8798;51.938;4.348;2023-02-16T01:12:21;37.30;;;18.83;;
17361;SDS011;8798;51.938;4.348;2023-02-16T01:14:50;41.40;;;20.17;;
17361;SDS011;8798;51.938;4.348;2023-02-16T01:17:19;39.53;;;18.67;;
17361;SDS011;8798;51.938;4.348;2023-02-16T01:19:48;42.20;;;20.03;;
17361;SDS011;8798;51.938;4.348;2023-02-16T01:22:15;42.40;;;20.43;;
17361;SDS011;8798;51.938;4.348;2023-02-16T01:24:45;34.90;;;18.03;;
17361;SDS011;8798;51.938;4.348;2023-02-16T01:27:12;40.83;;;18.97;;
17361;SDS011;8798;51.938;4.348;2023-02-16T01:29:40;42.73;;;19.90;;
17361;SDS011;8798;51.938;4.348;2023-02-16T01:32:09;40.23;;;19.33;;
17361;SDS011;8798;51.938;4.348;2023-02-16T01:34:38;38.87;;;18.90;;
17361;SDS011;8798;51.938;4.348;2023-02-16T01:37:09;39.43;;;19.70;;
17361;SDS011;8798;51.938;4.348;2023-02-16T01:39:40;42.90;;;20.40;;
17361;SDS011;8798;51.938;4.348;2023-02-16T01:42:12;45.43;;;20.40;;
17361;SDS011;8798;51.938;4.348;2023-02-16T01:44:52;39.10;;;19.53;;
17361;SDS011;8798;51.938;4.348;2023-02-16T01:47:32;42.50;;;20.63;;
17361;SDS011;8798;51.938;4.348;2023-02-16T01:50:12;47.03;;;21.27;;
17361;SDS011;8798;51.938;4.348;2023-02-16T01:52:43;38.23;;;18.83;;
17361;SDS011;8798;51.938;4.348;2023-02-16T01:55:15;43.23;;;20.40;;
17361;SDS011;8798;51.938;4.348;2023-02-16T01:57:49;40.53;;;19.80;;
17361;SDS011;8798;51.938;4.348;2023-02-16T02:00:23;43.63;;;20.60;;
17361;SDS011;8798;51.938;4.348;2023-02-16T02:02:55;47.67;;;20.10;;
17361;SDS011;8798;51.938;4.348;2023-02-16T02:05:46;39.63;;;18.67;;
17361;SDS011;8798;51.938;4.348;2023-02-16T02:08:18;39.47;;;18.70;;
17361;SDS011;8798;51.938;4.348;2023-02-16T02:11:00;37.83;;;19.30;;
17361;SDS011;8798;51.938;4.348;2023-02-16T02:13:37;37.07;;;18.60;;
17361;SDS011;8798;51.938;4.348;2023-02-16T02:16:11;38.07;;;18.53;;
17361;SDS011;8798;51.938;4.348;2023-02-16T02:18:43;37.77;;;18.93;;
17361;SDS011;8798;51.938;4.348;2023-02-16T02:21:15;36.57;;;18.23;;
17361;SDS011;8798;51.938;4.348;2023-02-16T02:24:36;41.50;;;18.70;;
17361;SDS011;8798;51.938;4.348;2023-02-16T02:27:25;35.90;;;18.27;;
17361;SDS011;8798;51.938;4.348;2023-02-16T02:30:07;41.07;;;18.63;;
17361;SDS011;8798;51.938;4.348;2023-02-16T02:32:54;39.10;;;18.83;;
17361;SDS011;8798;51.938;4.348;2023-02-16T02:35:36;38.67;;;18.63;;
17361;SDS011;8798;51.938;4.348;2023-02-16T02:38:15;38.10;;;18.47;;
17361;SDS011;8798;51.938;4.348;2023-02-16T02:40:52;37.43;;;18.77;;
17361;SDS011;8798;51.938;4.348;2023-02-16T02:43:32;41.23;;;18.90;;
17361;SDS011;8798;51.938;4.348;2023-02-16T02:46:06;36.77;;;18.20;;
17361;SDS011;8798;51.938;4.348;2023-02-16T02:48:38;40.03;;;19.07;;
17361;SDS011;8798;51.938;4.348;2023-02-16T02:51:09;39.27;;;18.10;;
17361;SDS011;8798;51.938;4.348;2023-02-16T02:53:58;41.43;;;18.57;;
17361;SDS011;8798;51.938;4.348;2023-02-16T02:56:48;38.30;;;17.83;;
17361;SDS011;8798;51.938;4.348;2023-02-16T02:59:38;36.97;;;18.13;;
17361;SDS011;8798;51.938;4.348;2023-02-16T03:02:40;41.47;;;18.80;;
17361;SDS011;8798;51.938;4.348;2023-02-16T03:05:11;36.10;;;18.20;;
17361;SDS011;8798;51.938;4.348;2023-02-16T03:07:41;36.57;;;18.43;;
17361;SDS011;8798;51.938;4.348;2023-02-16T03:10:13;39.23;;;19.83;;
17361;SDS011;8798;51.938;4.348;2023-02-16T03:13:00;36.17;;;18.33;;
17361;SDS011;8798;51.938;4.348;2023-02-16T03:15:33;35.13;;;17.10;;
17361;SDS011;8798;51.938;4.348;2023-02-16T03:18:02;35.83;;;18.53;;
17361;SDS011;8798;51.938;4.348;2023-02-16T03:20:51;36.23;;;17.40;;
17361;SDS011;8798;51.938;4.348;2023-02-16T03:23:37;36.97;;;18.23;;
17361;SDS011;8798;51.938;4.348;2023-02-16T03:26:24;32.27;;;17.10;;
17361;SDS011;8798;51.938;4.348;2023-02-16T03:29:10;33.53;;;16.80;;
17361;SDS011;8798;51.938;4.348;2023-02-16T03:31:49;39.20;;;19.23;;
17361;SDS011;8798;51.938;4.348;2023-02-16T03:34:19;35.73;;;17.13;;
17361;SDS011;8798;51.938;4.348;2023-02-16T03:36:49;35.67;;;18.13;;
17361;SDS011;8798;51.938;4.348;2023-02-16T03:39:20;34.10;;;17.47;;
17361;SDS011;8798;51.938;4.348;2023-02-16T03:41:48;35.13;;;17.17;;
17361;SDS011;8798;51.938;4.348;2023-02-16T03:44:19;37.07;;;17.67;;
17361;SDS011;8798;51.938;4.348;2023-02-16T03:46:48;34.90;;;16.83;;
17361;SDS011;8798;51.938;4.348;2023-02-16T03:49:17;35.03;;;17.77;;
17361;SDS011;8798;51.938;4.348;2023-02-16T03:51:46;35.50;;;17.33;;
17361;SDS011;8798;51.938;4.348;2023-02-16T03:54:14;39.97;;;17.70;;
17361;SDS011;8798;51.938;4.348;2023-02-16T03:56:41;36.70;;;16.10;;
17361;SDS011;8798;51.938;4.348;2023-02-16T03:59:09;36.63;;;17.67;;
17361;SDS011;8798;51.938;4.348;2023-02-16T04:01:37;35.00;;;18.07;;
17361;SDS011;8798;51.938;4.348;2023-02-16T04:04:06;33.23;;;17.43;;
17361;SDS011;8798;51.938;4.348;2023-02-16T04:06:34;33.33;;;17.10;;
17361;SDS011;8798;51.938;4.348;2023-02-16T04:09:02;36.97;;;17.60;;
17361;SDS011;8798;51.938;4.348;2023-02-16T04:11:32;37.90;;;18.17;;
17361;SDS011;8798;51.938;4.348;2023-02-16T04:14:14;34.53;;;17.07;;
17361;SDS011;8798;51.938;4.348;2023-02-16T04:16:42;32.10;;;16.73;;
17361;SDS011;8798;51.938;4.348;2023-02-16T04:19:11;35.67;;;17.13;;
17361;SDS011;8798;51.938;4.348;2023-02-16T04:21:39;39.60;;;16.83;;
17361;SDS011;8798;51.938;4.348;2023-02-16T04:24:08;32.70;;;16.40;;
17361;SDS011;8798;51.938;4.348;2023-02-16T04:26:36;41.90;;;18.27;;
17361;SDS011;8798;51.938;4.348;2023-02-16T04:29:03;34.90;;;17.53;;
17361;SDS011;8798;51.938;4.348;2023-02-16T04:31:31;37.50;;;18.77;;
17361;SDS011;8798;51.938;4.348;2023-02-16T04:33:59;36.50;;;17.53;;
17361;SDS011;8798;51.938;4.348;2023-02-16T04:36:28;33.40;;;17.50;;
17361;SDS011;8798;51.938;4.348;2023-02-16T04:38:56;36.57;;;17.83;;
17361;SDS011;8798;51.938;4.348;2023-02-16T04:41:24;32.50;;;16.77;;
17361;SDS011;8798;51.938;4.348;2023-02-16T04:43:52;35.97;;;17.40;;
17361;SDS011;8798;51.938;4.348;2023-02-16T04:46:20;35.17;;;16.73;;
17361;SDS011;8798;51.938;4.348;2023-02-16T04:48:49;35.93;;;17.57;;
17361;SDS011;8798;51.938;4.348;2023-02-16T04:51:17;36.67;;;17.73;;
17361;SDS011;8798;51.938;4.348;2023-02-16T04:53:46;36.93;;;17.70;;
17361;SDS011;8798;51.938;4.348;2023-02-16T04:56:14;34.97;;;17.47;;
17361;SDS011;8798;51.938;4.348;2023-02-16T04:58:41;33.30;;;17.40;;
17361;SDS011;8798;51.938;4.348;2023-02-16T05:01:16;34.83;;;17.37;;
17361;SDS011;8798;51.938;4.348;2023-02-16T05:03:45;35.17;;;17.47;;
17361;SDS011;8798;51.938;4.348;2023-02-16T05:06:13;36.47;;;17.73;;
17361;SDS011;8798;51.938;4.348;2023-02-16T05:08:41;41.00;;;18.37;;
17361;SDS011;8798;51.938;4.348;2023-02-16T05:11:10;35.70;;;17.50;;
17361;SDS011;8798;51.938;4.348;2023-02-16T05:13:56;35.23;;;17.80;;
17361;SDS011;8798;51.938;4.348;2023-02-16T05:16:41;40.90;;;18.20;;
17361;SDS011;8798;51.938;4.348;2023-02-16T05:19:10;37.00;;;18.20;;
17361;SDS011;8798;51.938;4.348;2023-02-16T05:21:38;36.50;;;17.73;;
17361;SDS011;8798;51.938;4.348;2023-02-16T05:24:07;34.60;;;16.93;;
17361;SDS011;8798;51.938;4.348;2023-02-16T05:26:38;34.37;;;17.03;;
17361;SDS011;8798;51.938;4.348;2023-02-16T05:29:05;37.13;;;18.10;;
17361;SDS011;8798;51.938;4.348;2023-02-16T05:31:33;36.70;;;18.47;;
17361;SDS011;8798;51.938;4.348;2023-02-16T05:34:02;36.47;;;18.60;;
17361;SDS011;8798;51.938;4.348;2023-02-16T05:36:29;37.33;;;18.40;;
17361;SDS011;8798;51.938;4.348;2023-02-16T05:38:57;33.53;;;17.60;;
17361;SDS011;8798;51.938;4.348;2023-02-16T05:41:25;35.80;;;17.87;;
17361;SDS011;8798;51.938;4.348;2023-02-16T05:43:55;41.77;;;19.37;;
17361;SDS011;8798;51.938;4.348;2023-02-16T05:46:24;40.53;;;19.27;;
17361;SDS011;8798;51.938;4.348;2023-02-16T05:48:53;39.10;;;18.43;;
17361;SDS011;8798;51.938;4.348;2023-02-16T05:51:21;40.07;;;19.90;;
17361;SDS011;8798;51.938;4.348;2023-02-16T05:53:49;36.23;;;17.40;;
17361;SDS011;8798;51.938;4.348;2023-02-16T05:56:17;36.43;;;18.17;;
17361;SDS011;8798;51.938;4.348;2023-02-16T05:58:46;34.60;;;17.67;;
17361;SDS011;8798;51.938;4.348;2023-02-16T06:01:16;35.60;;;17.87;;
17361;SDS011;8798;51.938;4.348;2023-02-16T06:03:43;36.80;;;18.73;;
17361;SDS011;8798;51.938;4.348;2023-02-16T06:06:12;38.10;;;18.30;;
17361;SDS011;8798;51.938;4.348;2023-02-16T06:08:39;38.77;;;18.50;;
17361;SDS011;8798;51.938;4.348;2023-02-16T06:11:10;38.30;;;18.27;;
17361;SDS011;8798;51.938;4.348;2023-02-16T06:13:52;31.73;;;17.57;;
17361;SDS011;8798;51.938;4.348;2023-02-16T06:16:25;38.07;;;17.73;;
17361;SDS011;8798;51.938;4.348;2023-02-16T06:18:54;36.83;;;18.40;;
17361;SDS011;8798;51.938;4.348;2023-02-16T06:21:22;38.70;;;18.10;;
17361;SDS011;8798;51.938;4.348;2023-02-16T06:23:51;37.87;;;17.80;;
17361;SDS011;8798;51.938;4.348;2023-02-16T06:26:18;37.40;;;18.57;;
17361;SDS011;8798;51.938;4.348;2023-02-16T06:28:46;37.63;;;18.70;;
17361;SDS011;8798;51.938;4.348;2023-02-16T06:31:14;39.30;;;17.73;;
17361;SDS011;8798;51.938;4.348;2023-02-16T06:33:44;38.20;;;18.27;;
17361;SDS011;8798;51.938;4.348;2023-02-16T06:36:11;38.63;;;18.90;;
17361;SDS011;8798;51.938;4.348;2023-02-16T06:38:40;41.07;;;18.80;;
17361;SDS011;8798;51.938;4.348;2023-02-16T06:41:08;38.07;;;18.17;;
17361;SDS011;8798;51.938;4.348;2023-02-16T06:43:36;37.73;;;17.03;;
17361;SDS011;8798;51.938;4.348;2023-02-16T06:46:04;35.97;;;17.70;;
17361;SDS011;8798;51.938;4.348;2023-02-16T06:48:32;34.03;;;16.57;;
17361;SDS011;8798;51.938;4.348;2023-02-16T06:51:01;42.10;;;18.30;;
17361;SDS011;8798;51.938;4.348;2023-02-16T06:53:29;34.63;;;17.20;;
17361;SDS011;8798;51.938;4.348;2023-02-16T06:55:57;36.23;;;17.83;;
17361;SDS011;8798;51.938;4.348;2023-02-16T06:58:24;36.80;;;18.43;;
17361;SDS011;8798;51.938;4.348;2023-02-16T07:00:53;33.13;;;17.30;;
17361;SDS011;8798;51.938;4.348;2023-02-16T07:03:21;39.07;;;19.00;;
17361;SDS011;8798;51.938;4.348;2023-02-16T07:05:50;37.67;;;17.97;;
17361;SDS011;8798;51.938;4.348;2023-02-16T07:08:19;37.93;;;18.13;;
17361;SDS011;8798;51.938;4.348;2023-02-16T07:10:47;37.53;;;19.73;;
17361;SDS011;8798;51.938;4.348;2023-02-16T07:13:16;39.00;;;18.17;;
17361;SDS011;8798;51.938;4.348;2023-02-16T07:15:43;34.33;;;17.70;;
17361;SDS011;8798;51.938;4.348;2023-02-16T07:18:11;37.03;;;17.90;;
17361;SDS011;8798;51.938;4.348;2023-02-16T07:20:39;40.37;;;17.53;;
17361;SDS011;8798;51.938;4.348;2023-02-16T07:23:08;38.27;;;18.27;;
17361;SDS011;8798;51.938;4.348;2023-02-16T07:25:37;35.30;;;18.67;;
17361;SDS011;8798;51.938;4.348;2023-02-16T07:28:04;34.77;;;18.13;;
17361;SDS011;8798;51.938;4.348;2023-02-16T07:30:33;37.80;;;18.23;;
17361;SDS011;8798;51.938;4.348;2023-02-16T07:33:02;34.70;;;18.40;;
17361;SDS011;8798;51.938;4.348;2023-02-16T07:35:31;39.03;;;18.83;;
17361;SDS011;8798;51.938;4.348;2023-02-16T07:37:59;36.97;;;18.73;;
17361;SDS011;8798;51.938;4.348;2023-02-16T07:40:27;36.00;;;19.10;;
17361;SDS011;8798;51.938;4.348;2023-02-16T07:42:59;40.67;;;18.57;;
17361;SDS011;8798;51.938;4.348;2023-02-16T07:45:27;36.03;;;18.33;;
17361;SDS011;8798;51.938;4.348;2023-02-16T07:47:57;33.03;;;17.87;;
17361;SDS011;8798;51.938;4.348;2023-02-16T07:50:26;36.63;;;17.77;;
17361;SDS011;8798;51.938;4.348;2023-02-16T07:52:54;36.17;;;17.90;;
17361;SDS011;8798;51.938;4.348;2023-02-16T07:55:22;35.93;;;17.80;;
17361;SDS011;8798;51.938;4.348;2023-02-16T07:57:50;35.20;;;17.80;;
17361;SDS011;8798;51.938;4.348;2023-02-16T08:00:22;37.40;;;18.13;;
17361;SDS011;8798;51.938;4.348;2023-02-16T08:02:52;37.07;;;18.60;;
17361;SDS011;8798;51.938;4.348;2023-02-16T08:05:21;36.47;;;18.20;;
17361;SDS011;8798;51.938;4.348;2023-02-16T08:07:49;35.40;;;18.23;;
17361;SDS011;8798;51.938;4.348;2023-02-16T08:10:17;34.70;;;18.63;;
17361;SDS011;8798;51.938;4.348;2023-02-16T08:12:45;36.00;;;18.03;;
17361;SDS011;8798;51.938;4.348;2023-02-16T08:15:15;34.83;;;18.23;;
17361;SDS011;8798;51.938;4.348;2023-02-16T08:17:44;34.90;;;17.53;;
17361;SDS011;8798;51.938;4.348;2023-02-16T08:20:12;37.00;;;18.27;;
17361;SDS011;8798;51.938;4.348;2023-02-16T08:22:40;35.30;;;18.37;;
17361;SDS011;8798;51.938;4.348;2023-02-16T08:25:09;37.53;;;18.47;;
17361;SDS011;8798;51.938;4.348;2023-02-16T08:27:36;40.97;;;19.13;;
17361;SDS011;8798;51.938;4.348;2023-02-16T08:30:05;34.60;;;18.13;;
17361;SDS011;8798;51.938;4.348;2023-02-16T08:32:38;34.37;;;18.87;;
17361;SDS011;8798;51.938;4.348;2023-02-16T08:35:08;35.67;;;18.40;;
17361;SDS011;8798;51.938;4.348;2023-02-16T08:37:36;37.60;;;19.07;;
17361;SDS011;8798;51.938;4.348;2023-02-16T08:40:04;38.83;;;19.23;;
17361;SDS011;8798;51.938;4.348;2023-02-16T08:42:35;37.37;;;18.80;;
17361;SDS011;8798;51.938;4.348;2023-02-16T08:45:03;38.73;;;19.53;;
17361;SDS011;8798;51.938;4.348;2023-02-16T08:47:32;40.00;;;19.40;;
17361;SDS011;8798;51.938;4.348;2023-02-16T08:50:01;38.80;;;19.50;;
17361;SDS011;8798;51.938;4.348;2023-02-16T08:52:31;38.73;;;18.93;;
17361;SDS011;8798;51.938;4.348;2023-02-16T08:54:58;38.07;;;18.27;;
17361;SDS011;8798;51.938;4.348;2023-02-16T08:57:26;41.47;;;19.73;;
17361;SDS011;8798;51.938;4.348;2023-02-16T08:59:54;36.17;;;18.93;;
17361;SDS011;8798;51.938;4.348;2023-02-16T09:02:35;39.57;;;19.27;;
17361;SDS011;8798;51.938;4.348;2023-02-16T09:05:03;34.90;;;18.53;;
17361;SDS011;8798;51.938;4.348;2023-02-16T09:07:33;35.30;;;18.87;;
17361;SDS011;8798;51.938;4.348;2023-02-16T09:10:01;38.43;;;18.63;;
17361;SDS011;8798;51.938;4.348;2023-02-16T09:12:29;37.47;;;18.87;;
17361;SDS011;8798;51.938;4.348;2023-02-16T09:15:00;35.40;;;19.00;;
17361;SDS011;8798;51.938;4.348;2023-02-16T09:17:28;39.50;;;19.33;;
17361;SDS011;8798;51.938;4.348;2023-02-16T09:19:56;37.90;;;18.23;;
17361;SDS011;8798;51.938;4.348;2023-02-16T09:22:24;37.77;;;18.87;;
17361;SDS011;8798;51.938;4.348;2023-02-16T09:24:53;35.60;;;19.07;;
17361;SDS011;8798;51.938;4.348;2023-02-16T09:27:21;40.67;;;19.20;;
17361;SDS011;8798;51.938;4.348;2023-02-16T09:29:49;37.73;;;19.10;;
17361;SDS011;8798;51.938;4.348;2023-02-16T09:32:16;38.97;;;19.60;;
17361;SDS011;8798;51.938;4.348;2023-02-16T09:34:45;37.43;;;19.27;;
17361;SDS011;8798;51.938;4.348;2023-02-16T09:37:15;38.33;;;18.57;;
17361;SDS011;8798;51.938;4.348;2023-02-16T09:39:43;38.20;;;19.03;;
17361;SDS011;8798;51.938;4.348;2023-02-16T09:42:16;34.13;;;19.07;;
17361;SDS011;8798;51.938;4.348;2023-02-16T09:44:55;37.43;;;19.23;;
17361;SDS011;8798;51.938;4.348;2023-02-16T09:47:30;40.80;;;19.17;;
17361;SDS011;8798;51.938;4.348;2023-02-16T09:50:00;40.60;;;19.53;;
17361;SDS011;8798;51.938;4.348;2023-02-16T09:52:34;34.27;;;18.47;;
17361;SDS011;8798;51.938;4.348;2023-02-16T09:55:06;41.40;;;20.07;;
17361;SDS011;8798;51.938;4.348;2023-02-16T09:57:45;45.43;;;21.33;;
17361;SDS011;8798;51.938;4.348;2023-02-16T10:00:25;38.90;;;19.50;;
17361;SDS011;8798;51.938;4.348;2023-02-16T10:03:06;39.37;;;18.67;;
17361;SDS011;8798;51.938;4.348;2023-02-16T10:05:48;37.20;;;19.27;;
17361;SDS011;8798;51.938;4.348;2023-02-16T10:08:24;41.77;;;20.23;;
17361;SDS011;8798;51.938;4.348;2023-02-16T10:10:59;39.30;;;19.90;;
17361;SDS011;8798;51.938;4.348;2023-02-16T10:13:55;36.40;;;18.43;;
17361;SDS011;8798;51.938;4.348;2023-02-16T10:16:28;40.23;;;19.23;;
17361;SDS011;8798;51.938;4.348;2023-02-16T10:18:58;41.47;;;20.17;;
17361;SDS011;8798;51.938;4.348;2023-02-16T10:21:28;39.63;;;19.33;;
17361;SDS011;8798;51.938;4.348;2023-02-16T10:23:58;43.73;;;19.77;;
17361;SDS011;8798;51.938;4.348;2023-02-16T10:26:29;37.17;;;19.13;;
17361;SDS011;8798;51.938;4.348;2023-02-16T10:29:05;41.23;;;17.77;;
17361;SDS011;8798;51.938;4.348;2023-02-16T10:31:37;38.30;;;18.07;;
17361;SDS011;8798;51.938;4.348;2023-02-16T10:34:12;40.60;;;20.30;;
17361;SDS011;8798;51.938;4.348;2023-02-16T10:36:53;37.53;;;18.10;;
17361;SDS011;8798;51.938;4.348;2023-02-16T10:39:32;38.03;;;17.87;;
17361;SDS011;8798;51.938;4.348;2023-02-16T10:42:07;36.63;;;18.47;;
17361;SDS011;8798;51.938;4.348;2023-02-16T10:44:46;37.63;;;18.43;;
17361;SDS011;8798;51.938;4.348;2023-02-16T10:47:22;36.73;;;18.77;;
17361;SDS011;8798;51.938;4.348;2023-02-16T10:49:56;37.27;;;17.97;;
17361;SDS011;8798;51.938;4.348;2023-02-16T10:52:24;36.07;;;17.77;;
17361;SDS011;8798;51.938;4.348;2023-02-16T10:54:56;38.93;;;18.33;;
17361;SDS011;8798;51.938;4.348;2023-02-16T10:57:24;36.20;;;18.33;;
17361;SDS011;8798;51.938;4.348;2023-02-16T10:59:58;39.83;;;17.73;;
17361;SDS011;8798;51.938;4.348;2023-02-16T11:02:29;34.07;;;17.17;;
17361;SDS011;8798;51.938;4.348;2023-02-16T11:05:04;34.33;;;18.50;;
17361;SDS011;8798;51.938;4.348;2023-02-16T11:07:57;34.67;;;17.67;;
17361;SDS011;8798;51.938;4.348;2023-02-16T11:10:37;41.67;;;17.13;;
17361;SDS011;8798;51.938;4.348;2023-02-16T11:13:16;34.80;;;17.23;;
17361;SDS011;8798;51.938;4.348;2023-02-16T11:15:52;39.77;;;18.63;;
17361;SDS011;8798;51.938;4.348;2023-02-16T11:18:27;34.63;;;17.33;;
17361;SDS011;8798;51.938;4.348;2023-02-16T11:20:58;40.47;;;18.43;;
17361;SDS011;8798;51.938;4.348;2023-02-16T11:23:27;37.43;;;17.27;;
17361;SDS011;8798;51.938;4.348;2023-02-16T11:25:58;35.43;;;17.63;;
17361;SDS011;8798;51.938;4.348;2023-02-16T11:28:29;35.77;;;17.50;;
17361;SDS011;8798;51.938;4.348;2023-02-16T11:31:02;35.80;;;18.20;;
17361;SDS011;8798;51.938;4.348;2023-02-16T11:33:37;36.73;;;16.60;;
17361;SDS011;8798;51.938;4.348;2023-02-16T11:36:17;32.77;;;16.23;;
17361;SDS011;8798;51.938;4.348;2023-02-16T11:39:00;32.73;;;17.43;;
17361;SDS011;8798;51.938;4.348;2023-02-16T11:41:33;31.60;;;16.10;;
17361;SDS011;8798;51.938;4.348;2023-02-16T11:44:02;34.97;;;17.23;;
17361;SDS011;8798;51.938;4.348;2023-02-16T11:46:38;35.83;;;17.43;;
17361;SDS011;8798;51.938;4.348;2023-02-16T11:49:19;33.37;;;16.80;;
17361;SDS011;8798;51.938;4.348;2023-02-16T11:51:48;30.10;;;16.37;;
17361;SDS011;8798;51.938;4.348;2023-02-16T11:54:16;40.57;;;18.50;;
17361;SDS011;8798;51.938;4.348;2023-02-16T11:56:44;34.90;;;17.43;;
17361;SDS011;8798;51.938;4.348;2023-02-16T11:59:29;33.07;;;16.83;;
17361;SDS011;8798;51.938;4.348;2023-02-16T12:02:14;35.17;;;17.10;;
17361;SDS011;8798;51.938;4.348;2023-02-16T12:05:15;32.80;;;16.37;;
17361;SDS011;8798;51.938;4.348;2023-02-16T12:07:56;29.33;;;16.33;;
17361;SDS011;8798;51.938;4.348;2023-02-16T12:10:36;28.67;;;15.53;;
17361;SDS011;8798;51.938;4.348;2023-02-16T12:13:11;29.47;;;15.83;;
17361;SDS011;8798;51.938;4.348;2023-02-16T12:15:44;32.37;;;15.50;;
17361;SDS011;8798;51.938;4.348;2023-02-16T12:18:23;31.73;;;15.93;;
17361;SDS011;8798;51.938;4.348;2023-02-16T12:20:58;25.97;;;15.23;;
17361;SDS011;8798;51.938;4.348;2023-02-16T12:23:36;32.93;;;14.37;;
17361;SDS011;8798;51.938;4.348;2023-02-16T12:26:12;27.30;;;13.73;;
17361;SDS011;8798;51.938;4.348;2023-02-16T12:29:05;28.57;;;13.30;;
17361;SDS011;8798;51.938;4.348;2023-02-16T12:31:49;28.57;;;13.30;;
17361;SDS011;8798;51.938;4.348;2023-02-16T12:34:34;26.50;;;12.30;;
17361;SDS011;8798;51.938;4.348;2023-02-16T12:37:11;25.07;;;12.70;;
17361;SDS011;8798;51.938;4.348;2023-02-16T12:39:50;25.37;;;12.10;;
17361;SDS011;8798;51.938;4.348;2023-02-16T12:42:30;26.90;;;12.17;;
17361;SDS011;8798;51.938;4.348;2023-02-16T12:45:15;26.57;;;12.67;;
17361;SDS011;8798;51.938;4.348;2023-02-16T12:47:48;23.97;;;12.47;;
17361;SDS011;8798;51.938;4.348;2023-02-16T12:50:23;22.00;;;11.77;;
17361;SDS011;8798;51.938;4.348;2023-02-16T12:52:55;23.10;;;13.13;;
17361;SDS011;8798;51.938;4.348;2023-02-16T12:55:30;28.90;;;13.03;;
17361;SDS011;8798;51.938;4.348;2023-02-16T12:58:07;26.43;;;14.00;;
17361;SDS011;8798;51.938;4.348;2023-02-16T13:00:43;24.77;;;13.73;;
17361;SDS011;8798;51.938;4.348;2023-02-16T13:03:22;25.13;;;13.43;;
17361;SDS011;8798;51.938;4.348;2023-02-16T13:05:58;24.20;;;13.53;;
17361;SDS011;8798;51.938;4.348;2023-02-16T13:08:35;27.17;;;12.30;;
17361;SDS011;8798;51.938;4.348;2023-02-16T13:11:11;26.80;;;12.57;;
17361;SDS011;8798;51.938;4.348;2023-02-16T13:13:45;26.93;;;12.87;;
17361;SDS011;8798;51.938;4.348;2023-02-16T13:16:15;24.97;;;11.97;;
17361;SDS011;8798;51.938;4.348;2023-02-16T13:18:56;22.67;;;12.30;;
17361;SDS011;8798;51.938;4.348;2023-02-16T13:21:35;26.37;;;12.50;;
17361;SDS011;8798;51.938;4.348;2023-02-16T13:24:28;25.80;;;13.23;;
17361;SDS011;8798;51.938;4.348;2023-02-16T13:27:17;25.47;;;12.70;;
17361;SDS011;8798;51.938;4.348;2023-02-16T13:29:59;24.00;;;11.57;;
17361;SDS011;8798;51.938;4.348;2023-02-16T13:32:45;20.60;;;11.47;;
17361;SDS011;8798;51.938;4.348;2023-02-16T13:35:40;22.43;;;11.23;;
17361;SDS011;8798;51.938;4.348;2023-02-16T13:38:26;21.43;;;11.30;;
17361;SDS011;8798;51.938;4.348;2023-02-16T13:41:23;20.83;;;11.60;;
17361;SDS011;8798;51.938;4.348;2023-02-16T13:44:00;20.03;;;10.67;;
17361;SDS011;8798;51.938;4.348;2023-02-16T13:46:31;39.33;;;12.73;;
17361;SDS011;8798;51.938;4.348;2023-02-16T13:49:04;24.60;;;12.37;;
17361;SDS011;8798;51.938;4.348;2023-02-16T13:51:39;27.27;;;11.63;;
17361;SDS011;8798;51.938;4.348;2023-02-16T13:54:20;25.60;;;12.30;;
17361;SDS011;8798;51.938;4.348;2023-02-16T13:56:53;26.13;;;11.37;;
17361;SDS011;8798;51.938;4.348;2023-02-16T14:05:25;20.20;;;10.23;;
17361;SDS011;8798;51.938;4.348;2023-02-16T14:08:09;23.63;;;10.77;;
17361;SDS011;8798;51.938;4.348;2023-02-16T14:13:44;24.57;;;10.17;;
17361;SDS011;8798;51.938;4.348;2023-02-16T14:16:27;21.07;;;10.73;;
17361;SDS011;8798;51.938;4.348;2023-02-16T14:18:59;19.07;;;9.77;;
17361;SDS011;8798;51.938;4.348;2023-02-16T14:21:31;18.57;;;8.47;;
17361;SDS011;8798;51.938;4.348;2023-02-16T14:24:04;17.60;;;9.67;;
17361;SDS011;8798;51.938;4.348;2023-02-16T14:26:54;18.00;;;9.87;;
17361;SDS011;8798;51.938;4.348;2023-02-16T14:29:26;18.43;;;10.07;;
17361;SDS011;8798;51.938;4.348;2023-02-16T14:31:57;16.20;;;9.47;;
17361;SDS011;8798;51.938;4.348;2023-02-16T14:34:35;17.57;;;9.87;;
17361;SDS011;8798;51.938;4.348;2023-02-16T14:39:55;19.13;;;10.10;;
17361;SDS011;8798;51.938;4.348;2023-02-16T14:42:35;17.87;;;9.53;;
17361;SDS011;8798;51.938;4.348;2023-02-16T14:45:09;18.63;;;10.03;;
17361;SDS011;8798;51.938;4.348;2023-02-16T14:47:53;18.97;;;9.13;;
17361;SDS011;8798;51.938;4.348;2023-02-16T14:50:33;17.50;;;9.30;;
17361;SDS011;8798;51.938;4.348;2023-02-16T14:53:20;19.17;;;9.33;;
17361;SDS011;8798;51.938;4.348;2023-02-16T14:56:21;13.80;;;8.17;;
17361;SDS011;8798;51.938;4.348;2023-02-16T14:59:02;13.67;;;8.20;;
17361;SDS011;8798;51.938;4.348;2023-02-16T15:01:39;17.10;;;8.73;;
17361;SDS011;8798;51.938;4.348;2023-02-16T15:04:08;18.10;;;9.40;;
17361;SDS011;8798;51.938;4.348;2023-02-16T15:06:37;17.63;;;9.80;;
17361;SDS011;8798;51.938;4.348;2023-02-16T15:09:12;15.80;;;9.23;;
17361;SDS011;8798;51.938;4.348;2023-02-16T15:11:46;15.93;;;9.30;;
17361;SDS011;8798;51.938;4.348;2023-02-16T15:14:36;16.57;;;8.83;;
17361;SDS011;8798;51.938;4.348;2023-02-16T15:17:12;17.60;;;9.30;;
17361;SDS011;8798;51.938;4.348;2023-02-16T15:19:50;17.73;;;9.60;;
17361;SDS011;8798;51.938;4.348;2023-02-16T15:22:20;19.20;;;9.30;;
17361;SDS011;8798;51.938;4.348;2023-02-16T15:24:53;16.20;;;9.40;;